sensor_id;sensor_type;location;lat;lon;timestamp;P1;durP1;ratioP1;P2;durP2;ratioP2
14346;SDS011;7257;52.158;9.968;2022-11-15T00:00:09;7.18;;;6.38;;
14346;SDS011;7257;52.158;9.968;2022-11-15T00:00:30;8.95;;;6.82;;
14346;SDS011;7257;52.158;9.968;2022-11-15T00:00:52;9.23;;;6.78;;
14346;SDS011;7257;52.158;9.968;2022-11-15T00:01:14;10.43;;;7.03;;
14346;SDS011;7257;52.158;9.968;2022-11-15T00:01:38;9.02;;;6.78;;
14346;SDS011;7257;52.158;9.968;2022-11-15T00:02:00;9.15;;;6.68;;
14346;SDS011;7257;52.158;9.968;2022-11-15T00:02:24;8.82;;;6.22;;
14346;SDS011;7257;52.158;9.968;2022-11-15T00:02:44;8.63;;;6.60;;
14346;SDS011;7257;52.158;9.968;2022-11-15T00:03:06;8.82;;;6.90;;
14346;SDS011;7257;52.158;9.968;2022-11-15T00:03:27;8.18;;;7.07;;
14346;SDS011;7257;52.158;9.968;2022-11-15T00:03:50;9.55;;;6.75;;
14346;SDS011;7257;52.158;9.968;2022-11-15T00:04:12;9.30;;;6.55;;
14346;SDS011;7257;52.158;9.968;2022-11-15T00:04:34;9.73;;;6.30;;
14346;SDS011;7257;52.158;9.968;2022-11-15T00:04:56;9.40;;;6.78;;
14346;SDS011;7257;52.158;9.968;2022-11-15T00:05:17;9.47;;;7.30;;
14346;SDS011;7257;52.158;9.968;2022-11-15T00:05:38;8.70;;;7.38;;
14346;SDS011;7257;52.158;9.968;2022-11-15T00:06:00;8.50;;;7.63;;
14346;SDS011;7257;52.158;9.968;2022-11-15T00:06:22;8.70;;;7.53;;
14346;SDS011;7257;52.158;9.968;2022-11-15T00:06:44;8.77;;;7.13;;
14346;SDS011;7257;52.158;9.968;2022-11-15T00:07:05;9.18;;;7.45;;
14346;SDS011;7257;52.158;9.968;2022-11-15T00:07:25;9.00;;;7.80;;
14346;SDS011;7257;52.158;9.968;2022-11-15T00:07:46;9.63;;;8.45;;
14346;SDS011;7257;52.158;9.968;2022-11-15T00:08:07;9.68;;;8.32;;
14346;SDS011;7257;52.158;9.968;2022-11-15T00:08:30;9.20;;;8.20;;
14346;SDS011;7257;52.158;9.968;2022-11-15T00:08:54;8.02;;;7.20;;
14346;SDS011;7257;52.158;9.968;2022-11-15T00:09:14;8.20;;;6.65;;
14346;SDS011;7257;52.158;9.968;2022-11-15T00:09:36;7.93;;;6.45;;
14346;SDS011;7257;52.158;9.968;2022-11-15T00:09:57;8.93;;;6.57;;
14346;SDS011;7257;52.158;9.968;2022-11-15T00:10:18;9.52;;;6.90;;
14346;SDS011;7257;52.158;9.968;2022-11-15T00:10:39;9.95;;;6.60;;
14346;SDS011;7257;52.158;9.968;2022-11-15T00:11:01;9.02;;;6.45;;
14346;SDS011;7257;52.158;9.968;2022-11-15T00:11:24;7.88;;;6.30;;
14346;SDS011;7257;52.158;9.968;2022-11-15T00:11:45;7.40;;;6.60;;
14346;SDS011;7257;52.158;9.968;2022-11-15T00:12:06;7.43;;;6.72;;
14346;SDS011;7257;52.158;9.968;2022-11-15T00:12:26;8.18;;;6.80;;
14346;SDS011;7257;52.158;9.968;2022-11-15T00:12:48;7.97;;;6.80;;
14346;SDS011;7257;52.158;9.968;2022-11-15T00:13:10;8.10;;;6.80;;
14346;SDS011;7257;52.158;9.968;2022-11-15T00:13:32;7.90;;;7.10;;
14346;SDS011;7257;52.158;9.968;2022-11-15T00:13:54;8.15;;;7.10;;
14346;SDS011;7257;52.158;9.968;2022-11-15T00:14:18;8.85;;;7.32;;
14346;SDS011;7257;52.158;9.968;2022-11-15T00:14:39;8.07;;;7.05;;
14346;SDS011;7257;52.158;9.968;2022-11-15T00:15:00;8.80;;;6.70;;
14346;SDS011;7257;52.158;9.968;2022-11-15T00:15:21;8.98;;;6.90;;
14346;SDS011;7257;52.158;9.968;2022-11-15T00:15:43;9.00;;;6.75;;
14346;SDS011;7257;52.158;9.968;2022-11-15T00:16:04;8.55;;;7.22;;
14346;SDS011;7257;52.158;9.968;2022-11-15T00:16:25;8.23;;;7.15;;
14346;SDS011;7257;52.158;9.968;2022-11-15T00:16:46;7.95;;;7.10;;
14346;SDS011;7257;52.158;9.968;2022-11-15T00:17:08;8.68;;;7.05;;
14346;SDS011;7257;52.158;9.968;2022-11-15T00:17:29;8.63;;;6.65;;
14346;SDS011;7257;52.158;9.968;2022-11-15T00:17:49;9.27;;;6.53;;
14346;SDS011;7257;52.158;9.968;2022-11-15T00:18:11;8.50;;;6.17;;
14346;SDS011;7257;52.158;9.968;2022-11-15T00:18:34;8.05;;;6.43;;
14346;SDS011;7257;52.158;9.968;2022-11-15T00:18:54;8.20;;;6.72;;
14346;SDS011;7257;52.158;9.968;2022-11-15T00:19:17;8.20;;;7.00;;
14346;SDS011;7257;52.158;9.968;2022-11-15T00:19:39;8.32;;;6.75;;
14346;SDS011;7257;52.158;9.968;2022-11-15T00:20:01;8.93;;;6.65;;
14346;SDS011;7257;52.158;9.968;2022-11-15T00:20:22;8.77;;;6.80;;
14346;SDS011;7257;52.158;9.968;2022-11-15T00:20:43;8.90;;;6.47;;
14346;SDS011;7257;52.158;9.968;2022-11-15T00:21:04;7.90;;;6.30;;
14346;SDS011;7257;52.158;9.968;2022-11-15T00:21:28;7.43;;;6.00;;
14346;SDS011;7257;52.158;9.968;2022-11-15T00:21:51;7.50;;;6.53;;
14346;SDS011;7257;52.158;9.968;2022-11-15T00:22:11;8.02;;;7.10;;
14346;SDS011;7257;52.158;9.968;2022-11-15T00:22:33;8.55;;;7.47;;
14346;SDS011;7257;52.158;9.968;2022-11-15T00:22:55;9.00;;;7.95;;
14346;SDS011;7257;52.158;9.968;2022-11-15T00:23:19;9.75;;;7.63;;
14346;SDS011;7257;52.158;9.968;2022-11-15T00:23:40;10.00;;;7.15;;
14346;SDS011;7257;52.158;9.968;2022-11-15T00:24:01;9.25;;;6.70;;
14346;SDS011;7257;52.158;9.968;2022-11-15T00:24:23;7.75;;;6.05;;
14346;SDS011;7257;52.158;9.968;2022-11-15T00:24:43;6.70;;;5.35;;
14346;SDS011;7257;52.158;9.968;2022-11-15T00:25:05;7.95;;;5.88;;
14346;SDS011;7257;52.158;9.968;2022-11-15T00:25:26;8.23;;;6.43;;
14346;SDS011;7257;52.158;9.968;2022-11-15T00:25:54;10.18;;;7.63;;
14346;SDS011;7257;52.158;9.968;2022-11-15T00:26:18;9.65;;;7.47;;
14346;SDS011;7257;52.158;9.968;2022-11-15T00:26:39;7.10;;;6.20;;
14346;SDS011;7257;52.158;9.968;2022-11-15T00:27:00;7.65;;;6.28;;
14346;SDS011;7257;52.158;9.968;2022-11-15T00:27:22;7.63;;;6.10;;
14346;SDS011;7257;52.158;9.968;2022-11-15T00:27:43;8.68;;;6.32;;
14346;SDS011;7257;52.158;9.968;2022-11-15T00:28:05;7.75;;;6.03;;
14346;SDS011;7257;52.158;9.968;2022-11-15T00:28:26;8.95;;;6.45;;
14346;SDS011;7257;52.158;9.968;2022-11-15T00:28:47;9.43;;;6.88;;
14346;SDS011;7257;52.158;9.968;2022-11-15T00:29:09;10.63;;;7.30;;
14346;SDS011;7257;52.158;9.968;2022-11-15T00:29:30;11.10;;;7.15;;
14346;SDS011;7257;52.158;9.968;2022-11-15T00:29:51;10.25;;;6.97;;
14346;SDS011;7257;52.158;9.968;2022-11-15T00:30:12;9.05;;;6.63;;
14346;SDS011;7257;52.158;9.968;2022-11-15T00:30:33;7.82;;;6.50;;
14346;SDS011;7257;52.158;9.968;2022-11-15T00:30:59;8.10;;;6.38;;
14346;SDS011;7257;52.158;9.968;2022-11-15T00:31:21;8.30;;;6.57;;
14346;SDS011;7257;52.158;9.968;2022-11-15T00:31:42;7.80;;;6.30;;
14346;SDS011;7257;52.158;9.968;2022-11-15T00:32:02;8.90;;;6.68;;
14346;SDS011;7257;52.158;9.968;2022-11-15T00:32:24;9.40;;;6.65;;
14346;SDS011;7257;52.158;9.968;2022-11-15T00:32:45;10.10;;;6.55;;
14346;SDS011;7257;52.158;9.968;2022-11-15T00:33:06;9.77;;;6.22;;
14346;SDS011;7257;52.158;9.968;2022-11-15T00:33:28;9.10;;;6.25;;
14346;SDS011;7257;52.158;9.968;2022-11-15T00:33:49;6.70;;;6.00;;
14346;SDS011;7257;52.158;9.968;2022-11-15T00:34:11;7.18;;;6.47;;
14346;SDS011;7257;52.158;9.968;2022-11-15T00:34:32;8.05;;;6.63;;
14346;SDS011;7257;52.158;9.968;2022-11-15T00:34:55;8.63;;;6.63;;
14346;SDS011;7257;52.158;9.968;2022-11-15T00:35:16;9.75;;;6.15;;
14346;SDS011;7257;52.158;9.968;2022-11-15T00:35:37;10.55;;;6.22;;
14346;SDS011;7257;52.158;9.968;2022-11-15T00:35:59;11.93;;;6.70;;
14346;SDS011;7257;52.158;9.968;2022-11-15T00:36:21;8.70;;;6.50;;
14346;SDS011;7257;52.158;9.968;2022-11-15T00:36:42;6.53;;;5.80;;
14346;SDS011;7257;52.158;9.968;2022-11-15T00:37:03;6.32;;;5.53;;
14346;SDS011;7257;52.158;9.968;2022-11-15T00:37:25;6.00;;;5.40;;
14346;SDS011;7257;52.158;9.968;2022-11-15T00:37:46;7.30;;;5.65;;
14346;SDS011;7257;52.158;9.968;2022-11-15T00:38:07;8.33;;;6.00;;
14346;SDS011;7257;52.158;9.968;2022-11-15T00:38:30;9.57;;;6.57;;
14346;SDS011;7257;52.158;9.968;2022-11-15T00:38:52;7.32;;;5.95;;
14346;SDS011;7257;52.158;9.968;2022-11-15T00:39:14;7.45;;;6.28;;
14346;SDS011;7257;52.158;9.968;2022-11-15T00:39:35;7.07;;;6.38;;
14346;SDS011;7257;52.158;9.968;2022-11-15T00:39:56;7.18;;;6.40;;
14346;SDS011;7257;52.158;9.968;2022-11-15T00:40:18;7.35;;;6.07;;
14346;SDS011;7257;52.158;9.968;2022-11-15T00:40:38;7.57;;;5.97;;
14346;SDS011;7257;52.158;9.968;2022-11-15T00:41:00;7.97;;;6.28;;
14346;SDS011;7257;52.158;9.968;2022-11-15T00:41:21;7.57;;;6.18;;
14346;SDS011;7257;52.158;9.968;2022-11-15T00:41:43;7.38;;;6.20;;
14346;SDS011;7257;52.158;9.968;2022-11-15T00:42:04;7.30;;;6.60;;
14346;SDS011;7257;52.158;9.968;2022-11-15T00:43:50;7.43;;;6.10;;
14346;SDS011;7257;52.158;9.968;2022-11-15T00:44:12;7.28;;;6.28;;
14346;SDS011;7257;52.158;9.968;2022-11-15T00:44:33;7.50;;;6.50;;
14346;SDS011;7257;52.158;9.968;2022-11-15T00:44:54;7.32;;;6.47;;
14346;SDS011;7257;52.158;9.968;2022-11-15T00:45:15;7.55;;;6.75;;
14346;SDS011;7257;52.158;9.968;2022-11-15T00:45:36;8.38;;;6.95;;
14346;SDS011;7257;52.158;9.968;2022-11-15T00:45:58;8.45;;;7.22;;
14346;SDS011;7257;52.158;9.968;2022-11-15T00:46:19;8.30;;;7.07;;
14346;SDS011;7257;52.158;9.968;2022-11-15T00:46:40;8.15;;;6.95;;
14346;SDS011;7257;52.158;9.968;2022-11-15T00:47:01;8.15;;;6.70;;
14346;SDS011;7257;52.158;9.968;2022-11-15T00:47:22;8.02;;;6.70;;
14346;SDS011;7257;52.158;9.968;2022-11-15T00:47:43;7.25;;;6.20;;
14346;SDS011;7257;52.158;9.968;2022-11-15T00:48:05;7.55;;;6.07;;
14346;SDS011;7257;52.158;9.968;2022-11-15T00:48:26;6.90;;;5.70;;
14346;SDS011;7257;52.158;9.968;2022-11-15T00:48:47;6.60;;;5.70;;
14346;SDS011;7257;52.158;9.968;2022-11-15T00:49:09;6.63;;;5.82;;
14346;SDS011;7257;52.158;9.968;2022-11-15T00:49:29;8.07;;;6.07;;
14346;SDS011;7257;52.158;9.968;2022-11-15T00:49:50;8.70;;;6.38;;
14346;SDS011;7257;52.158;9.968;2022-11-15T00:50:13;8.30;;;6.22;;
14346;SDS011;7257;52.158;9.968;2022-11-15T00:50:34;8.35;;;6.60;;
14346;SDS011;7257;52.158;9.968;2022-11-15T00:50:56;7.70;;;5.93;;
14346;SDS011;7257;52.158;9.968;2022-11-15T00:51:17;8.55;;;6.28;;
14346;SDS011;7257;52.158;9.968;2022-11-15T00:51:38;7.63;;;6.40;;
14346;SDS011;7257;52.158;9.968;2022-11-15T00:51:59;8.38;;;6.78;;
14346;SDS011;7257;52.158;9.968;2022-11-15T00:52:21;8.57;;;6.53;;
14346;SDS011;7257;52.158;9.968;2022-11-15T00:52:42;8.35;;;6.50;;
14346;SDS011;7257;52.158;9.968;2022-11-15T00:53:03;8.15;;;6.90;;
14346;SDS011;7257;52.158;9.968;2022-11-15T00:53:24;7.80;;;7.00;;
14346;SDS011;7257;52.158;9.968;2022-11-15T00:53:45;8.07;;;7.13;;
14346;SDS011;7257;52.158;9.968;2022-11-15T00:54:07;9.23;;;6.57;;
14346;SDS011;7257;52.158;9.968;2022-11-15T00:54:28;9.15;;;6.40;;
14346;SDS011;7257;52.158;9.968;2022-11-15T00:54:49;7.97;;;6.47;;
14346;SDS011;7257;52.158;9.968;2022-11-15T00:55:12;7.10;;;6.38;;
14346;SDS011;7257;52.158;9.968;2022-11-15T00:55:34;7.53;;;6.57;;
14346;SDS011;7257;52.158;9.968;2022-11-15T00:55:56;8.80;;;6.90;;
14346;SDS011;7257;52.158;9.968;2022-11-15T00:56:17;9.07;;;7.50;;
14346;SDS011;7257;52.158;9.968;2022-11-15T00:56:38;9.47;;;7.67;;
14346;SDS011;7257;52.158;9.968;2022-11-15T00:56:59;8.60;;;7.65;;
14346;SDS011;7257;52.158;9.968;2022-11-15T00:57:20;9.15;;;7.85;;
14346;SDS011;7257;52.158;9.968;2022-11-15T00:57:42;8.27;;;7.32;;
14346;SDS011;7257;52.158;9.968;2022-11-15T00:58:03;8.68;;;6.95;;
14346;SDS011;7257;52.158;9.968;2022-11-15T00:58:24;9.30;;;6.65;;
14346;SDS011;7257;52.158;9.968;2022-11-15T00:58:44;9.23;;;6.93;;
14346;SDS011;7257;52.158;9.968;2022-11-15T00:59:06;8.57;;;6.82;;
14346;SDS011;7257;52.158;9.968;2022-11-15T00:59:27;8.35;;;6.63;;
14346;SDS011;7257;52.158;9.968;2022-11-15T00:59:48;9.30;;;6.72;;
14346;SDS011;7257;52.158;9.968;2022-11-15T01:00:09;9.60;;;6.90;;
14346;SDS011;7257;52.158;9.968;2022-11-15T01:00:32;9.75;;;7.28;;
14346;SDS011;7257;52.158;9.968;2022-11-15T01:00:53;8.50;;;7.03;;
14346;SDS011;7257;52.158;9.968;2022-11-15T01:01:14;8.30;;;7.25;;
14346;SDS011;7257;52.158;9.968;2022-11-15T01:01:35;7.63;;;6.82;;
14346;SDS011;7257;52.158;9.968;2022-11-15T01:01:57;7.60;;;6.35;;
14346;SDS011;7257;52.158;9.968;2022-11-15T01:02:18;9.80;;;6.22;;
14346;SDS011;7257;52.158;9.968;2022-11-15T01:02:39;10.02;;;6.38;;
14346;SDS011;7257;52.158;9.968;2022-11-15T01:03:00;9.43;;;6.60;;
14346;SDS011;7257;52.158;9.968;2022-11-15T01:03:21;8.00;;;6.80;;
14346;SDS011;7257;52.158;9.968;2022-11-15T01:03:43;7.22;;;6.50;;
14346;SDS011;7257;52.158;9.968;2022-11-15T01:04:04;7.80;;;6.47;;
14346;SDS011;7257;52.158;9.968;2022-11-15T01:04:24;7.63;;;6.30;;
14346;SDS011;7257;52.158;9.968;2022-11-15T01:04:45;9.48;;;6.75;;
14346;SDS011;7257;52.158;9.968;2022-11-15T01:05:07;9.02;;;7.00;;
14346;SDS011;7257;52.158;9.968;2022-11-15T01:05:30;8.15;;;6.95;;
14346;SDS011;7257;52.158;9.968;2022-11-15T01:05:50;8.10;;;6.85;;
14346;SDS011;7257;52.158;9.968;2022-11-15T01:06:11;7.90;;;6.28;;
14346;SDS011;7257;52.158;9.968;2022-11-15T01:06:33;7.95;;;6.22;;
14346;SDS011;7257;52.158;9.968;2022-11-15T01:06:54;7.70;;;6.32;;
14346;SDS011;7257;52.158;9.968;2022-11-15T01:07:15;8.57;;;6.53;;
14346;SDS011;7257;52.158;9.968;2022-11-15T01:07:36;8.18;;;6.05;;
14346;SDS011;7257;52.158;9.968;2022-11-15T01:07:58;8.40;;;6.28;;
14346;SDS011;7257;52.158;9.968;2022-11-15T01:08:20;8.70;;;6.40;;
14346;SDS011;7257;52.158;9.968;2022-11-15T01:08:41;7.85;;;6.20;;
14346;SDS011;7257;52.158;9.968;2022-11-15T01:09:03;7.10;;;5.95;;
14346;SDS011;7257;52.158;9.968;2022-11-15T01:09:24;6.83;;;6.00;;
14346;SDS011;7257;52.158;9.968;2022-11-15T01:09:45;7.27;;;6.00;;
14346;SDS011;7257;52.158;9.968;2022-11-15T01:10:06;8.07;;;6.00;;
14346;SDS011;7257;52.158;9.968;2022-11-15T01:10:27;7.78;;;6.07;;
14346;SDS011;7257;52.158;9.968;2022-11-15T01:10:49;7.30;;;6.43;;
14346;SDS011;7257;52.158;9.968;2022-11-15T01:11:11;7.47;;;6.72;;
14346;SDS011;7257;52.158;9.968;2022-11-15T01:11:33;7.50;;;6.38;;
14346;SDS011;7257;52.158;9.968;2022-11-15T01:11:54;7.47;;;5.93;;
14346;SDS011;7257;52.158;9.968;2022-11-15T01:12:16;6.70;;;5.80;;
14346;SDS011;7257;52.158;9.968;2022-11-15T01:12:37;7.55;;;6.75;;
14346;SDS011;7257;52.158;9.968;2022-11-15T01:12:57;8.17;;;7.37;;
14346;SDS011;7257;52.158;9.968;2022-11-15T01:13:18;8.73;;;7.93;;
14346;SDS011;7257;52.158;9.968;2022-11-15T01:13:40;8.73;;;7.82;;
14346;SDS011;7257;52.158;9.968;2022-11-15T01:14:01;10.40;;;6.95;;
14346;SDS011;7257;52.158;9.968;2022-11-15T01:14:22;9.55;;;6.30;;
14346;SDS011;7257;52.158;9.968;2022-11-15T01:14:43;8.85;;;5.75;;
14346;SDS011;7257;52.158;9.968;2022-11-15T01:15:05;7.53;;;6.15;;
14346;SDS011;7257;52.158;9.968;2022-11-15T01:15:26;8.38;;;6.65;;
14346;SDS011;7257;52.158;9.968;2022-11-15T01:15:47;8.38;;;7.00;;
14346;SDS011;7257;52.158;9.968;2022-11-15T01:16:09;7.90;;;7.03;;
14346;SDS011;7257;52.158;9.968;2022-11-15T01:16:32;8.88;;;7.32;;
14346;SDS011;7257;52.158;9.968;2022-11-15T01:16:53;9.70;;;7.40;;
14346;SDS011;7257;52.158;9.968;2022-11-15T01:17:14;9.02;;;7.28;;
14346;SDS011;7257;52.158;9.968;2022-11-15T01:17:35;8.88;;;6.70;;
14346;SDS011;7257;52.158;9.968;2022-11-15T01:17:56;7.32;;;6.38;;
14346;SDS011;7257;52.158;9.968;2022-11-15T01:18:18;7.07;;;6.13;;
14346;SDS011;7257;52.158;9.968;2022-11-15T01:18:39;6.97;;;6.27;;
14346;SDS011;7257;52.158;9.968;2022-11-15T01:19:02;7.10;;;6.40;;
14346;SDS011;7257;52.158;9.968;2022-11-15T01:19:23;7.18;;;6.45;;
14346;SDS011;7257;52.158;9.968;2022-11-15T01:19:44;7.78;;;6.63;;
14346;SDS011;7257;52.158;9.968;2022-11-15T01:20:07;7.43;;;6.43;;
14346;SDS011;7257;52.158;9.968;2022-11-15T01:20:30;7.20;;;6.22;;
14346;SDS011;7257;52.158;9.968;2022-11-15T01:20:51;6.82;;;6.13;;
14346;SDS011;7257;52.158;9.968;2022-11-15T01:21:12;7.28;;;6.57;;
14346;SDS011;7257;52.158;9.968;2022-11-15T01:21:35;8.40;;;6.68;;
14346;SDS011;7257;52.158;9.968;2022-11-15T01:21:56;8.85;;;6.97;;
14346;SDS011;7257;52.158;9.968;2022-11-15T01:22:17;9.48;;;7.20;;
14346;SDS011;7257;52.158;9.968;2022-11-15T01:22:38;8.75;;;7.75;;
14346;SDS011;7257;52.158;9.968;2022-11-15T01:23:00;9.30;;;7.63;;
14346;SDS011;7257;52.158;9.968;2022-11-15T01:23:21;8.25;;;6.90;;
14346;SDS011;7257;52.158;9.968;2022-11-15T01:23:42;7.93;;;6.63;;
14346;SDS011;7257;52.158;9.968;2022-11-15T01:24:03;6.95;;;6.25;;
14346;SDS011;7257;52.158;9.968;2022-11-15T01:24:25;7.40;;;6.45;;
14346;SDS011;7257;52.158;9.968;2022-11-15T01:24:46;8.65;;;6.50;;
14346;SDS011;7257;52.158;9.968;2022-11-15T01:25:09;9.43;;;6.68;;
14346;SDS011;7257;52.158;9.968;2022-11-15T01:25:30;9.35;;;6.60;;
14346;SDS011;7257;52.158;9.968;2022-11-15T01:25:51;8.38;;;6.50;;
14346;SDS011;7257;52.158;9.968;2022-11-15T01:26:14;8.85;;;6.80;;
14346;SDS011;7257;52.158;9.968;2022-11-15T01:26:36;9.38;;;7.03;;
14346;SDS011;7257;52.158;9.968;2022-11-15T01:26:57;9.05;;;6.68;;
14346;SDS011;7257;52.158;9.968;2022-11-15T01:27:18;8.38;;;6.38;;
14346;SDS011;7257;52.158;9.968;2022-11-15T01:27:39;8.05;;;6.35;;
14346;SDS011;7257;52.158;9.968;2022-11-15T01:28:00;8.02;;;6.80;;
14346;SDS011;7257;52.158;9.968;2022-11-15T01:28:21;8.00;;;6.88;;
14346;SDS011;7257;52.158;9.968;2022-11-15T01:28:42;8.40;;;6.82;;
14346;SDS011;7257;52.158;9.968;2022-11-15T01:29:03;10.05;;;6.50;;
14346;SDS011;7257;52.158;9.968;2022-11-15T01:29:25;9.80;;;6.80;;
14346;SDS011;7257;52.158;9.968;2022-11-15T01:29:46;9.82;;;7.18;;
14346;SDS011;7257;52.158;9.968;2022-11-15T01:30:07;8.35;;;7.45;;
14346;SDS011;7257;52.158;9.968;2022-11-15T01:30:29;8.10;;;7.10;;
14346;SDS011;7257;52.158;9.968;2022-11-15T01:30:50;7.97;;;7.13;;
14346;SDS011;7257;52.158;9.968;2022-11-15T01:31:12;8.30;;;7.40;;
14346;SDS011;7257;52.158;9.968;2022-11-15T01:31:34;8.90;;;7.47;;
14346;SDS011;7257;52.158;9.968;2022-11-15T01:31:55;8.43;;;7.07;;
14346;SDS011;7257;52.158;9.968;2022-11-15T01:32:16;8.65;;;7.22;;
14346;SDS011;7257;52.158;9.968;2022-11-15T01:32:38;8.27;;;7.03;;
14346;SDS011;7257;52.158;9.968;2022-11-15T01:32:59;8.00;;;6.88;;
14346;SDS011;7257;52.158;9.968;2022-11-15T01:33:20;8.15;;;6.53;;
14346;SDS011;7257;52.158;9.968;2022-11-15T01:33:41;8.20;;;6.38;;
14346;SDS011;7257;52.158;9.968;2022-11-15T01:34:02;7.43;;;6.50;;
14346;SDS011;7257;52.158;9.968;2022-11-15T01:34:24;6.90;;;6.20;;
14346;SDS011;7257;52.158;9.968;2022-11-15T01:34:45;7.03;;;6.32;;
14346;SDS011;7257;52.158;9.968;2022-11-15T01:35:06;6.95;;;6.22;;
14346;SDS011;7257;52.158;9.968;2022-11-15T01:35:27;8.00;;;6.50;;
14346;SDS011;7257;52.158;9.968;2022-11-15T01:35:50;7.88;;;6.30;;
14346;SDS011;7257;52.158;9.968;2022-11-15T01:36:12;7.65;;;6.03;;
14346;SDS011;7257;52.158;9.968;2022-11-15T01:36:34;7.10;;;5.93;;
14346;SDS011;7257;52.158;9.968;2022-11-15T01:36:55;7.70;;;6.22;;
14346;SDS011;7257;52.158;9.968;2022-11-15T01:37:17;8.65;;;6.70;;
14346;SDS011;7257;52.158;9.968;2022-11-15T01:37:38;9.80;;;6.55;;
14346;SDS011;7257;52.158;9.968;2022-11-15T01:37:59;9.15;;;6.28;;
14346;SDS011;7257;52.158;9.968;2022-11-15T01:38:20;7.90;;;5.80;;
14346;SDS011;7257;52.158;9.968;2022-11-15T01:38:42;8.13;;;5.78;;
14346;SDS011;7257;52.158;9.968;2022-11-15T01:39:03;8.50;;;6.13;;
14346;SDS011;7257;52.158;9.968;2022-11-15T01:39:24;7.57;;;6.40;;
14346;SDS011;7257;52.158;9.968;2022-11-15T01:39:46;7.57;;;6.32;;
14346;SDS011;7257;52.158;9.968;2022-11-15T01:40:08;7.78;;;6.40;;
14346;SDS011;7257;52.158;9.968;2022-11-15T01:40:30;8.05;;;6.40;;
14346;SDS011;7257;52.158;9.968;2022-11-15T01:40:50;6.75;;;5.88;;
14346;SDS011;7257;52.158;9.968;2022-11-15T01:41:14;6.73;;;5.40;;
14346;SDS011;7257;52.158;9.968;2022-11-15T01:41:37;7.13;;;5.45;;
14346;SDS011;7257;52.158;9.968;2022-11-15T01:41:58;7.38;;;5.93;;
14346;SDS011;7257;52.158;9.968;2022-11-15T01:42:19;7.40;;;6.20;;
14346;SDS011;7257;52.158;9.968;2022-11-15T01:42:40;7.15;;;6.00;;
14346;SDS011;7257;52.158;9.968;2022-11-15T01:43:41;8.75;;;5.70;;
14346;SDS011;7257;52.158;9.968;2022-11-15T01:45:00;6.85;;;6.00;;
14346;SDS011;7257;52.158;9.968;2022-11-15T01:45:22;7.10;;;6.40;;
14346;SDS011;7257;52.158;9.968;2022-11-15T01:45:43;7.10;;;6.07;;
14346;SDS011;7257;52.158;9.968;2022-11-15T01:46:14;7.45;;;5.95;;
14346;SDS011;7257;52.158;9.968;2022-11-15T01:46:43;6.82;;;6.10;;
14346;SDS011;7257;52.158;9.968;2022-11-15T01:47:10;7.07;;;6.30;;
14346;SDS011;7257;52.158;9.968;2022-11-15T01:47:35;7.65;;;6.20;;
14346;SDS011;7257;52.158;9.968;2022-11-15T01:47:58;7.55;;;6.10;;
14346;SDS011;7257;52.158;9.968;2022-11-15T01:48:19;6.78;;;5.50;;
14346;SDS011;7257;52.158;9.968;2022-11-15T01:48:42;8.93;;;5.80;;
14346;SDS011;7257;52.158;9.968;2022-11-15T01:49:05;8.63;;;5.93;;
14346;SDS011;7257;52.158;9.968;2022-11-15T01:49:32;6.60;;;5.90;;
14346;SDS011;7257;52.158;9.968;2022-11-15T01:49:56;6.28;;;5.65;;
14346;SDS011;7257;52.158;9.968;2022-11-15T01:50:20;6.30;;;5.70;;
14346;SDS011;7257;52.158;9.968;2022-11-15T01:50:48;6.82;;;6.00;;
14346;SDS011;7257;52.158;9.968;2022-11-15T01:51:11;7.75;;;6.15;;
14346;SDS011;7257;52.158;9.968;2022-11-15T01:51:35;8.00;;;5.97;;
14346;SDS011;7257;52.158;9.968;2022-11-15T01:51:57;8.30;;;6.20;;
14346;SDS011;7257;52.158;9.968;2022-11-15T01:52:19;7.78;;;6.30;;
14346;SDS011;7257;52.158;9.968;2022-11-15T01:52:43;7.78;;;6.40;;
14346;SDS011;7257;52.158;9.968;2022-11-15T01:53:04;7.75;;;6.00;;
14346;SDS011;7257;52.158;9.968;2022-11-15T01:53:25;7.55;;;5.72;;
14346;SDS011;7257;52.158;9.968;2022-11-15T01:53:47;7.68;;;5.80;;
14346;SDS011;7257;52.158;9.968;2022-11-15T01:54:13;6.55;;;5.72;;
14346;SDS011;7257;52.158;9.968;2022-11-15T01:54:37;7.13;;;6.10;;
14346;SDS011;7257;52.158;9.968;2022-11-15T01:55:00;7.53;;;6.72;;
14346;SDS011;7257;52.158;9.968;2022-11-15T01:55:27;8.40;;;6.70;;
14346;SDS011;7257;52.158;9.968;2022-11-15T01:55:48;8.10;;;6.55;;
14346;SDS011;7257;52.158;9.968;2022-11-15T01:56:10;9.20;;;6.30;;
14346;SDS011;7257;52.158;9.968;2022-11-15T01:56:36;8.45;;;6.18;;
14346;SDS011;7257;52.158;9.968;2022-11-15T01:57:01;6.75;;;5.97;;
14346;SDS011;7257;52.158;9.968;2022-11-15T01:57:30;6.22;;;5.60;;
14346;SDS011;7257;52.158;9.968;2022-11-15T01:57:52;7.30;;;5.85;;
14346;SDS011;7257;52.158;9.968;2022-11-15T01:58:16;7.97;;;6.43;;
14346;SDS011;7257;52.158;9.968;2022-11-15T01:58:37;10.03;;;7.07;;
14346;SDS011;7257;52.158;9.968;2022-11-15T01:59:02;8.93;;;6.80;;
14346;SDS011;7257;52.158;9.968;2022-11-15T01:59:26;7.57;;;6.35;;
14346;SDS011;7257;52.158;9.968;2022-11-15T01:59:48;6.43;;;5.65;;
14346;SDS011;7257;52.158;9.968;2022-11-15T02:00:09;6.78;;;5.72;;
14346;SDS011;7257;52.158;9.968;2022-11-15T02:00:32;8.25;;;6.10;;
14346;SDS011;7257;52.158;9.968;2022-11-15T02:00:53;8.27;;;6.07;;
14346;SDS011;7257;52.158;9.968;2022-11-15T02:01:14;8.45;;;5.75;;
14346;SDS011;7257;52.158;9.968;2022-11-15T02:01:35;7.25;;;6.00;;
14346;SDS011;7257;52.158;9.968;2022-11-15T02:01:58;7.80;;;6.15;;
14346;SDS011;7257;52.158;9.968;2022-11-15T02:02:20;8.40;;;6.75;;
14346;SDS011;7257;52.158;9.968;2022-11-15T02:02:41;7.13;;;5.90;;
14346;SDS011;7257;52.158;9.968;2022-11-15T02:03:02;6.75;;;5.63;;
14346;SDS011;7257;52.158;9.968;2022-11-15T02:03:25;7.35;;;5.90;;
14346;SDS011;7257;52.158;9.968;2022-11-15T02:03:54;7.95;;;6.13;;
14346;SDS011;7257;52.158;9.968;2022-11-15T02:04:19;7.07;;;6.35;;
14346;SDS011;7257;52.158;9.968;2022-11-15T02:04:45;7.05;;;6.00;;
14346;SDS011;7257;52.158;9.968;2022-11-15T02:05:07;7.15;;;6.07;;
14346;SDS011;7257;52.158;9.968;2022-11-15T02:05:30;6.80;;;6.10;;
14346;SDS011;7257;52.158;9.968;2022-11-15T02:05:53;7.68;;;6.07;;
14346;SDS011;7257;52.158;9.968;2022-11-15T02:06:14;10.00;;;6.10;;
14346;SDS011;7257;52.158;9.968;2022-11-15T02:06:35;10.18;;;6.07;;
14346;SDS011;7257;52.158;9.968;2022-11-15T02:06:56;9.80;;;6.30;;
14346;SDS011;7257;52.158;9.968;2022-11-15T02:07:19;8.48;;;6.40;;
14346;SDS011;7257;52.158;9.968;2022-11-15T02:07:41;7.72;;;6.00;;
14346;SDS011;7257;52.158;9.968;2022-11-15T02:08:02;7.03;;;5.38;;
14346;SDS011;7257;52.158;9.968;2022-11-15T02:08:24;6.22;;;5.43;;
14346;SDS011;7257;52.158;9.968;2022-11-15T02:08:45;8.15;;;6.28;;
14346;SDS011;7257;52.158;9.968;2022-11-15T02:09:08;8.43;;;6.43;;
14346;SDS011;7257;52.158;9.968;2022-11-15T02:09:29;8.25;;;6.32;;
14346;SDS011;7257;52.158;9.968;2022-11-15T02:09:50;7.07;;;5.78;;
14346;SDS011;7257;52.158;9.968;2022-11-15T02:10:13;6.90;;;5.70;;
14346;SDS011;7257;52.158;9.968;2022-11-15T02:10:39;7.95;;;5.88;;
14346;SDS011;7257;52.158;9.968;2022-11-15T02:11:00;8.20;;;6.20;;
14346;SDS011;7257;52.158;9.968;2022-11-15T02:11:21;8.40;;;6.40;;
14346;SDS011;7257;52.158;9.968;2022-11-15T02:11:42;7.78;;;6.57;;
14346;SDS011;7257;52.158;9.968;2022-11-15T02:12:04;6.95;;;6.25;;
14346;SDS011;7257;52.158;9.968;2022-11-15T02:12:27;7.60;;;6.28;;
14346;SDS011;7257;52.158;9.968;2022-11-15T02:12:48;8.55;;;6.35;;
14346;SDS011;7257;52.158;9.968;2022-11-15T02:13:13;8.80;;;6.30;;
14346;SDS011;7257;52.158;9.968;2022-11-15T02:13:36;7.30;;;6.20;;
14346;SDS011;7257;52.158;9.968;2022-11-15T02:13:57;8.48;;;6.68;;
14346;SDS011;7257;52.158;9.968;2022-11-15T02:14:23;10.18;;;6.95;;
14346;SDS011;7257;52.158;9.968;2022-11-15T02:14:48;10.00;;;6.90;;
14346;SDS011;7257;52.158;9.968;2022-11-15T02:15:13;8.70;;;6.25;;
14346;SDS011;7257;52.158;9.968;2022-11-15T02:15:35;8.20;;;5.75;;
14346;SDS011;7257;52.158;9.968;2022-11-15T02:16:04;6.95;;;5.50;;
14346;SDS011;7257;52.158;9.968;2022-11-15T02:16:35;7.30;;;5.65;;
14346;SDS011;7257;52.158;9.968;2022-11-15T02:17:08;8.38;;;6.15;;